Time;durP1;ratioP1;P1;durP2;ratioP2;P2;SDS_P1;SDS_P2;PMS_P1;PMS_P2;Temp;Humidity;BMP_temperature;BMP_pressure;BME280_temperature;BME280_humidity;BME280_pressure;Samples;Min_cycle;Max_cycle;Signal;HPM_P1;HPM_P2
2023/05/07 00:01:27;;;;;;;27.25;20.75;;;;;;;;;;5001378;28;20906;-79
2023/05/07 00:03:53;;;;;;;26.08;21.63;;;;;;;;;;4992765;28;20793;-79
2023/05/07 00:06:20;;;;;;;27.23;20.90;;;;;;;;;;4989320;28;20433;-78
2023/05/07 00:08:46;;;;;;;26.58;20.92;;;;;;;;;;4988934;28;20434;-78
2023/05/07 00:11:13;;;;;;;27.30;21.60;;;;;;;;;;4996453;28;20437;-78
2023/05/07 00:13:39;;;;;;;25.45;20.27;;;;;;;;;;4991949;28;20502;-80
2023/05/07 00:16:07;;;;;;;26.08;20.55;;;;;;;;;;4987678;28;20430;-80
2023/05/07 00:18:33;;;;;;;28.43;20.93;;;;;;;;;;4988035;28;20509;-77
2023/05/07 00:21:01;;;;;;;28.20;22.15;;;;;;;;;;4990520;28;20439;-78
2023/05/07 00:23:28;;;;;;;24.90;20.70;;;;;;;;;;4992003;28;20831;-78
2023/05/07 00:25:57;;;;;;;27.70;21.50;;;;;;;;;;4996216;28;20435;-79
2023/05/07 00:28:23;;;;;;;27.48;21.98;;;;;;;;;;4992723;28;20418;-80
2023/05/07 00:30:50;;;;;;;27.52;20.75;;;;;;;;;;4986080;28;20426;-78
2023/05/07 00:33:17;;;;;;;26.13;20.73;;;;;;;;;;4991128;28;20419;-80
2023/05/07 00:35:44;;;;;;;26.88;21.77;;;;;;;;;;4987423;28;20447;-80
2023/05/07 00:38:10;;;;;;;28.60;22.20;;;;;;;;;;4988831;28;20426;-81
2023/05/07 00:40:37;;;;;;;26.00;22.05;;;;;;;;;;4992159;28;20438;-80
2023/05/07 00:43:03;;;;;;;28.87;23.00;;;;;;;;;;4991342;28;20430;-78
2023/05/07 00:45:30;;;;;;;28.77;23.25;;;;;;;;;;4991692;28;20442;-80
2023/05/07 00:47:58;;;;;;;26.85;21.23;;;;;;;;;;4989596;28;20459;-80
2023/05/07 00:50:26;;;;;;;25.10;21.70;;;;;;;;;;4988534;28;20418;-80
2023/05/07 00:52:53;;;;;;;27.20;21.50;;;;;;;;;;4991829;28;20778;-80
2023/05/07 00:55:20;;;;;;;28.77;21.27;;;;;;;;;;4992446;28;20437;-79
2023/05/07 00:57:47;;;;;;;28.52;22.10;;;;;;;;;;4991130;28;20423;-80
2023/05/07 01:00:13;;;;;;;28.03;21.27;;;;;;;;;;4988343;28;20452;-80
2023/05/07 01:02:40;;;;;;;26.90;21.37;;;;;;;;;;4988475;28;20431;-80
2023/05/07 01:05:09;;;;;;;27.73;21.92;;;;;;;;;;4980904;28;20795;-80
2023/05/07 01:07:37;;;;;;;26.38;21.13;;;;;;;;;;4989804;28;20996;-80
2023/05/07 01:10:05;;;;;;;28.30;22.35;;;;;;;;;;4991704;28;20453;-79
2023/05/07 01:12:31;;;;;;;29.55;22.55;;;;;;;;;;4992461;28;20426;-79
2023/05/07 01:14:58;;;;;;;27.88;22.00;;;;;;;;;;4992607;28;20442;-80
2023/05/07 01:17:24;;;;;;;30.20;22.95;;;;;;;;;;4991444;28;20442;-80
2023/05/07 01:19:52;;;;;;;28.15;21.35;;;;;;;;;;4992293;28;20414;-80
2023/05/07 01:22:24;;;;;;;25.97;21.27;;;;;;;;;;4987035;28;20951;-80
2023/05/07 01:24:52;;;;;;;28.27;21.83;;;;;;;;;;4989936;28;20438;-80
2023/05/07 01:27:18;;;;;;;29.38;22.00;;;;;;;;;;4991178;28;20919;-80
2023/05/07 01:29:44;;;;;;;25.97;22.03;;;;;;;;;;4988890;28;20942;-80
2023/05/07 01:32:13;;;;;;;27.38;21.58;;;;;;;;;;4990489;28;20423;-80
2023/05/07 01:34:40;;;;;;;26.88;21.88;;;;;;;;;;4990641;28;20797;-80
2023/05/07 01:37:06;;;;;;;28.27;22.50;;;;;;;;;;4994974;28;20786;-80
2023/05/07 01:39:33;;;;;;;28.02;22.60;;;;;;;;;;4987144;28;20446;-80
2023/05/07 01:42:01;;;;;;;27.80;22.13;;;;;;;;;;4987062;28;20957;-80
2023/05/07 01:44:27;;;;;;;28.73;21.42;;;;;;;;;;4991913;28;20430;-80
2023/05/07 01:46:54;;;;;;;27.95;22.35;;;;;;;;;;4991333;28;20417;-80
2023/05/07 01:49:23;;;;;;;28.20;23.58;;;;;;;;;;4991799;28;20429;-80
2023/05/07 01:51:50;;;;;;;27.77;22.17;;;;;;;;;;4991437;28;20499;-80
2023/05/07 01:54:16;;;;;;;26.65;22.77;;;;;;;;;;4991460;28;20897;-80
2023/05/07 01:56:42;;;;;;;27.02;21.67;;;;;;;;;;4990835;28;20418;-80
2023/05/07 01:59:10;;;;;;;28.02;21.83;;;;;;;;;;4995305;28;20457;-80
2023/05/07 02:01:36;;;;;;;27.63;21.40;;;;;;;;;;4991613;28;20444;-80
2023/05/07 02:04:04;;;;;;;25.55;21.48;;;;;;;;;;4993814;28;20429;-78
2023/05/07 02:06:30;;;;;;;25.50;20.63;;;;;;;;;;4995064;28;20418;-78
2023/05/07 02:08:57;;;;;;;24.95;20.77;;;;;;;;;;4995276;28;20857;-79
2023/05/07 02:11:25;;;;;;;25.55;20.15;;;;;;;;;;4990938;28;20430;-78
2023/05/07 02:13:52;;;;;;;26.70;20.33;;;;;;;;;;4993245;28;20865;-78
2023/05/07 02:16:21;;;;;;;27.15;21.38;;;;;;;;;;4992070;28;20440;-79
2023/05/07 02:18:48;;;;;;;26.02;20.58;;;;;;;;;;4990320;28;20906;-79
2023/05/07 02:21:14;;;;;;;26.48;20.83;;;;;;;;;;4992707;28;20441;-79
2023/05/07 02:23:41;;;;;;;26.55;20.75;;;;;;;;;;4996678;28;20437;-80
2023/05/07 02:26:07;;;;;;;28.87;20.93;;;;;;;;;;4995147;28;20426;-79
2023/05/07 02:28:35;;;;;;;28.52;21.00;;;;;;;;;;4993821;28;20437;-79
2023/05/07 02:31:01;;;;;;;25.08;19.83;;;;;;;;;;4997958;28;20800;-79
2023/05/07 02:33:29;;;;;;;27.25;20.42;;;;;;;;;;4993401;28;20433;-79
2023/05/07 02:35:56;;;;;;;25.45;20.00;;;;;;;;;;4994065;28;20422;-79
2023/05/07 02:38:23;;;;;;;27.52;19.80;;;;;;;;;;4991544;28;20442;-79
2023/05/07 02:40:51;;;;;;;23.00;18.25;;;;;;;;;;4994804;28;20418;-78
2023/05/07 02:43:17;;;;;;;26.00;19.07;;;;;;;;;;4984996;28;20414;-79
2023/05/07 02:45:44;;;;;;;27.55;19.27;;;;;;;;;;4993465;28;20441;-79
2023/05/07 02:48:10;;;;;;;25.10;20.00;;;;;;;;;;4991141;28;20426;-80
2023/05/07 02:50:38;;;;;;;25.60;19.57;;;;;;;;;;4996881;28;20471;-80
2023/05/07 02:53:04;;;;;;;27.73;19.40;;;;;;;;;;4991310;28;20426;-78
2023/05/07 02:55:31;;;;;;;27.98;20.67;;;;;;;;;;4988143;28;20430;-79
2023/05/07 02:57:57;;;;;;;22.63;18.23;;;;;;;;;;4997049;28;20481;-79
2023/05/07 03:00:24;;;;;;;22.83;17.73;;;;;;;;;;4992791;28;20769;-78
2023/05/07 03:02:50;;;;;;;26.05;19.38;;;;;;;;;;4990648;28;20920;-80
2023/05/07 03:05:17;;;;;;;25.67;20.10;;;;;;;;;;4993947;28;20426;-80
2023/05/07 03:07:47;;;;;;;24.98;19.35;;;;;;;;;;4993637;28;20435;-80
2023/05/07 03:10:13;;;;;;;26.10;19.73;;;;;;;;;;4993256;28;20434;-80
2023/05/07 03:12:40;;;;;;;29.52;20.73;;;;;;;;;;4990714;28;20446;-80
2023/05/07 03:15:07;;;;;;;26.20;19.67;;;;;;;;;;4993244;28;20431;-80
2023/05/07 03:17:34;;;;;;;28.65;20.40;;;;;;;;;;4993659;28;20426;-80
2023/05/07 03:20:00;;;;;;;23.80;19.20;;;;;;;;;;4992614;28;20426;-80
2023/05/07 03:22:26;;;;;;;27.17;20.55;;;;;;;;;;4990235;28;20422;-80
2023/05/07 03:24:54;;;;;;;25.67;19.45;;;;;;;;;;4993513;28;20433;-80
2023/05/07 03:27:21;;;;;;;25.80;20.23;;;;;;;;;;4985108;28;20425;-80
2023/05/07 03:29:47;;;;;;;27.52;20.58;;;;;;;;;;4993255;28;20422;-80
2023/05/07 03:32:14;;;;;;;25.90;19.60;;;;;;;;;;4993226;28;20515;-80
2023/05/07 03:34:40;;;;;;;26.52;19.73;;;;;;;;;;4993635;28;20925;-80
2023/05/07 03:37:06;;;;;;;26.35;20.17;;;;;;;;;;4992803;28;20418;-81
2023/05/07 03:39:33;;;;;;;28.33;20.25;;;;;;;;;;4990499;28;20430;-80
2023/05/07 03:42:01;;;;;;;26.40;20.05;;;;;;;;;;4992164;28;20411;-80
2023/05/07 03:44:27;;;;;;;26.48;20.80;;;;;;;;;;4993499;28;20901;-79
2023/05/07 03:46:55;;;;;;;28.05;20.50;;;;;;;;;;4995183;28;20792;-80
2023/05/07 03:49:21;;;;;;;28.63;21.05;;;;;;;;;;4991794;28;20417;-81
2023/05/07 03:51:48;;;;;;;29.13;21.38;;;;;;;;;;4983742;28;20949;-79
2023/05/07 03:54:15;;;;;;;28.33;21.40;;;;;;;;;;4991913;28;20932;-81
2023/05/07 03:56:42;;;;;;;27.38;19.77;;;;;;;;;;4991279;28;20406;-81
2023/05/07 03:59:10;;;;;;;25.10;19.25;;;;;;;;;;4993193;28;20928;-79
2023/05/07 04:01:36;;;;;;;27.80;20.02;;;;;;;;;;4992420;28;20430;-79
2023/05/07 04:04:03;;;;;;;24.15;18.73;;;;;;;;;;4992931;28;20435;-79
2023/05/07 04:06:29;;;;;;;25.52;19.40;;;;;;;;;;4981721;28;20446;-81
2023/05/07 04:08:56;;;;;;;25.70;19.08;;;;;;;;;;4992565;28;20947;-81
2023/05/07 04:11:23;;;;;;;27.73;19.70;;;;;;;;;;4992428;28;20523;-81
2023/05/07 04:13:49;;;;;;;29.38;20.63;;;;;;;;;;4989667;28;20460;-79
2023/05/07 04:16:17;;;;;;;29.83;20.88;;;;;;;;;;4990386;28;20924;-79
2023/05/07 04:18:43;;;;;;;27.77;19.33;;;;;;;;;;4985311;28;20432;-79
2023/05/07 04:21:14;;;;;;;27.77;19.83;;;;;;;;;;4992482;28;20419;-79
2023/05/07 04:23:41;;;;;;;25.30;19.92;;;;;;;;;;4991719;28;20430;-79
2023/05/07 04:26:08;;;;;;;26.67;19.70;;;;;;;;;;4993025;28;20422;-79
2023/05/07 04:28:34;;;;;;;24.90;18.98;;;;;;;;;;4990362;28;20430;-79
2023/05/07 04:31:01;;;;;;;27.48;19.20;;;;;;;;;;4991634;28;20441;-79
2023/05/07 04:33:29;;;;;;;28.17;19.37;;;;;;;;;;4988394;28;20426;-79
2023/05/07 04:35:55;;;;;;;23.13;18.90;;;;;;;;;;4990149;28;20430;-79
2023/05/07 04:38:23;;;;;;;24.75;18.52;;;;;;;;;;4991115;28;20956;-79
2023/05/07 04:40:49;;;;;;;24.27;18.98;;;;;;;;;;4992629;28;20828;-79
2023/05/07 04:43:16;;;;;;;23.17;18.20;;;;;;;;;;4991262;28;20419;-79
2023/05/07 04:45:43;;;;;;;25.05;18.75;;;;;;;;;;4990588;28;20908;-81
2023/05/07 04:48:10;;;;;;;26.13;19.40;;;;;;;;;;4990046;28;20418;-79
2023/05/07 04:50:38;;;;;;;24.63;18.50;;;;;;;;;;4992266;28;20424;-77
2023/05/07 04:53:04;;;;;;;24.37;18.53;;;;;;;;;;4987301;28;20418;-79
2023/05/07 04:55:31;;;;;;;24.58;18.67;;;;;;;;;;4992492;28;20796;-80
2023/05/07 04:57:57;;;;;;;22.80;18.25;;;;;;;;;;4991495;28;20441;-81
2023/05/07 05:00:25;;;;;;;21.92;17.63;;;;;;;;;;4992415;28;20414;-81
2023/05/07 05:02:51;;;;;;;22.33;16.50;;;;;;;;;;4991648;28;20500;-80
2023/05/07 05:05:18;;;;;;;22.13;16.90;;;;;;;;;;4988140;28;20437;-80
2023/05/07 05:07:46;;;;;;;22.80;16.60;;;;;;;;;;4989672;28;20418;-81
2023/05/07 05:10:14;;;;;;;19.73;15.88;;;;;;;;;;4991206;28;20434;-81
2023/05/07 05:12:40;;;;;;;21.60;16.60;;;;;;;;;;4994317;28;20430;-80
2023/05/07 05:15:07;;;;;;;20.80;16.52;;;;;;;;;;4987220;28;20439;-79
2023/05/07 05:17:34;;;;;;;21.75;16.17;;;;;;;;;;4985872;28;20429;-80
2023/05/07 05:20:01;;;;;;;20.02;16.08;;;;;;;;;;5005512;28;20938;-80
2023/05/07 05:22:29;;;;;;;20.00;15.40;;;;;;;;;;4991461;28;20425;-80
2023/05/07 05:24:57;;;;;;;20.67;15.48;;;;;;;;;;4992262;28;20434;-80
2023/05/07 05:27:24;;;;;;;19.25;14.98;;;;;;;;;;4990774;28;20449;-80
2023/05/07 05:29:51;;;;;;;18.80;14.70;;;;;;;;;;4988513;28;20431;-80
2023/05/07 05:32:18;;;;;;;19.88;15.55;;;;;;;;;;4991126;28;20418;-80
2023/05/07 05:34:45;;;;;;;18.02;15.10;;;;;;;;;;4995586;28;20939;-80
2023/05/07 05:37:12;;;;;;;19.25;14.75;;;;;;;;;;4996076;28;20417;-80
2023/05/07 05:39:38;;;;;;;18.88;15.27;;;;;;;;;;4995625;28;20448;-80
2023/05/07 05:42:06;;;;;;;19.80;15.40;;;;;;;;;;4994622;28;20434;-80
2023/05/07 05:44:32;;;;;;;22.38;15.80;;;;;;;;;;4994921;28;20445;-80
2023/05/07 05:46:59;;;;;;;18.33;15.00;;;;;;;;;;4994339;28;20438;-80
2023/05/07 05:49:25;;;;;;;19.88;14.35;;;;;;;;;;4983808;28;20416;-80
2023/05/07 05:51:52;;;;;;;17.05;14.07;;;;;;;;;;4994465;28;20429;-80
2023/05/07 05:54:18;;;;;;;20.48;15.40;;;;;;;;;;4993807;28;20430;-80
2023/05/07 05:56:45;;;;;;;19.52;15.50;;;;;;;;;;4991512;28;20433;-80
2023/05/07 05:59:12;;;;;;;18.08;14.40;;;;;;;;;;4990408;28;20438;-80
2023/05/07 06:01:39;;;;;;;21.45;15.57;;;;;;;;;;4995549;28;20438;-80
2023/05/07 06:04:05;;;;;;;20.60;16.15;;;;;;;;;;4995350;28;20568;-80
2023/05/07 06:06:32;;;;;;;19.47;15.23;;;;;;;;;;4992888;28;20876;-80
2023/05/07 06:08:58;;;;;;;19.55;14.75;;;;;;;;;;4995645;28;20423;-80
2023/05/07 06:11:25;;;;;;;16.15;13.93;;;;;;;;;;4988841;28;20414;-80
2023/05/07 06:13:51;;;;;;;16.03;13.57;;;;;;;;;;4992358;28;20942;-80
2023/05/07 06:16:20;;;;;;;16.20;13.73;;;;;;;;;;4989288;28;20799;-80
2023/05/07 06:18:47;;;;;;;17.45;13.48;;;;;;;;;;4988714;28;20427;-80
2023/05/07 06:21:14;;;;;;;14.15;12.38;;;;;;;;;;4989851;28;20424;-80
2023/05/07 06:23:41;;;;;;;15.10;12.40;;;;;;;;;;4990384;28;20439;-80
2023/05/07 06:26:07;;;;;;;14.55;12.20;;;;;;;;;;4994553;28;20470;-81
2023/05/07 06:28:35;;;;;;;13.80;11.73;;;;;;;;;;4990298;28;20418;-81
2023/05/07 06:31:11;;;;;;;13.27;11.30;;;;;;;;;;4989861;28;20513;-81
2023/05/07 06:33:39;;;;;;;12.10;10.80;;;;;;;;;;4992074;28;20424;-80
2023/05/07 06:36:06;;;;;;;12.68;11.38;;;;;;;;;;4993790;28;20422;-81
2023/05/07 06:38:32;;;;;;;11.95;10.65;;;;;;;;;;4997258;28;20924;-81
2023/05/07 06:40:59;;;;;;;12.10;10.80;;;;;;;;;;4994404;28;20421;-80
2023/05/07 06:43:25;;;;;;;11.48;10.25;;;;;;;;;;4994464;28;20504;-80
2023/05/07 06:45:51;;;;;;;11.30;10.10;;;;;;;;;;4992921;28;20811;-79
2023/05/07 06:48:17;;;;;;;12.77;11.00;;;;;;;;;;4994515;28;20433;-79
2023/05/07 06:50:45;;;;;;;11.00;9.90;;;;;;;;;;4993344;28;20418;-79
2023/05/07 06:53:12;;;;;;;11.55;10.35;;;;;;;;;;4991238;28;20426;-79
2023/05/07 06:55:38;;;;;;;13.02;10.63;;;;;;;;;;4993695;28;20449;-81
2023/05/07 06:58:05;;;;;;;11.60;9.98;;;;;;;;;;5006177;28;20423;-79
2023/05/07 07:00:32;;;;;;;11.27;10.07;;;;;;;;;;4994003;28;20437;-81
2023/05/07 07:02:59;;;;;;;10.87;9.77;;;;;;;;;;4994119;28;20438;-81
2023/05/07 07:05:25;;;;;;;11.40;10.18;;;;;;;;;;4993772;28;20426;-80
2023/05/07 07:07:53;;;;;;;13.23;10.60;;;;;;;;;;4993954;28;20438;-79
2023/05/07 07:10:20;;;;;;;11.55;10.38;;;;;;;;;;4993716;28;20415;-81
2023/05/07 07:12:46;;;;;;;11.57;10.48;;;;;;;;;;4987527;28;20492;-80
2023/05/07 07:15:12;;;;;;;11.30;10.20;;;;;;;;;;4989239;28;20422;-81
2023/05/07 07:17:40;;;;;;;11.70;10.00;;;;;;;;;;4993885;28;20430;-80
2023/05/07 07:20:07;;;;;;;11.45;10.02;;;;;;;;;;4993345;28;20930;-81
2023/05/07 07:22:34;;;;;;;11.50;10.30;;;;;;;;;;4995193;28;20415;-80
2023/05/07 07:25:01;;;;;;;12.93;10.10;;;;;;;;;;4993700;28;20415;-80
2023/05/07 07:27:28;;;;;;;10.63;9.52;;;;;;;;;;4993991;28;20414;-78
2023/05/07 07:29:54;;;;;;;11.15;10.05;;;;;;;;;;4990490;28;20416;-79
2023/05/07 07:32:21;;;;;;;12.10;9.55;;;;;;;;;;4989239;28;20900;-79
2023/05/07 07:34:47;;;;;;;10.70;9.60;;;;;;;;;;4991961;28;20960;-79
2023/05/07 07:37:14;;;;;;;11.68;10.40;;;;;;;;;;4992909;28;20445;-79
2023/05/07 07:39:40;;;;;;;10.80;9.60;;;;;;;;;;4989129;28;20932;-79
2023/05/07 07:42:08;;;;;;;10.80;9.70;;;;;;;;;;4992322;28;20492;-79
2023/05/07 07:44:34;;;;;;;11.10;9.90;;;;;;;;;;4993433;28;20433;-78
2023/05/07 07:47:01;;;;;;;11.13;9.93;;;;;;;;;;4993517;28;20437;-79
2023/05/07 07:49:27;;;;;;;12.02;10.80;;;;;;;;;;4986659;28;20464;-80
2023/05/07 07:51:54;;;;;;;11.68;10.27;;;;;;;;;;4990643;28;20421;-80
2023/05/07 07:54:20;;;;;;;11.45;10.25;;;;;;;;;;4992753;28;20508;-80
2023/05/07 07:56:47;;;;;;;11.77;10.57;;;;;;;;;;4993543;28;20438;-80
2023/05/07 07:59:18;;;;;;;11.57;10.38;;;;;;;;;;4992751;28;20441;-80
2023/05/07 08:01:44;;;;;;;12.05;10.48;;;;;;;;;;4993193;28;20425;-80
2023/05/07 08:04:11;;;;;;;12.55;11.25;;;;;;;;;;4986769;28;20515;-79
2023/05/07 08:06:38;;;;;;;11.90;10.60;;;;;;;;;;4990958;28;20406;-78
2023/05/07 08:09:04;;;;;;;18.52;12.50;;;;;;;;;;4991768;28;20847;-81
2023/05/07 08:11:30;;;;;;;10.90;9.80;;;;;;;;;;4992713;28;20517;-80
2023/05/07 08:13:57;;;;;;;11.07;9.93;;;;;;;;;;4990822;28;20457;-81
2023/05/07 08:16:25;;;;;;;12.52;10.50;;;;;;;;;;4992553;28;20429;-80
2023/05/07 08:18:52;;;;;;;11.25;10.07;;;;;;;;;;4990501;28;20424;-80
2023/05/07 08:21:20;;;;;;;11.60;10.15;;;;;;;;;;4994501;28;20437;-80
2023/05/07 08:23:46;;;;;;;11.20;10.00;;;;;;;;;;4992384;28;20441;-79
2023/05/07 08:26:13;;;;;;;11.43;9.98;;;;;;;;;;4987664;28;20434;-80
2023/05/07 08:28:40;;;;;;;11.35;10.05;;;;;;;;;;4991160;28;20434;-79
2023/05/07 08:31:06;;;;;;;10.90;9.80;;;;;;;;;;4991882;28;20430;-80
2023/05/07 08:33:34;;;;;;;10.05;9.05;;;;;;;;;;4990746;28;20433;-80
2023/05/07 08:36:01;;;;;;;10.05;8.95;;;;;;;;;;4992189;28;20426;-81
2023/05/07 08:38:28;;;;;;;10.38;9.27;;;;;;;;;;4983264;28;20422;-80
2023/05/07 08:40:54;;;;;;;9.98;8.95;;;;;;;;;;4996461;28;20429;-80
2023/05/07 08:43:22;;;;;;;10.50;9.20;;;;;;;;;;4992524;28;20434;-81
2023/05/07 08:45:50;;;;;;;9.70;8.70;;;;;;;;;;4990547;28;20440;-80
2023/05/07 08:48:17;;;;;;;10.02;8.73;;;;;;;;;;4992824;28;20900;-79
2023/05/07 08:50:45;;;;;;;9.75;8.75;;;;;;;;;;4991861;28;20449;-78
2023/05/07 08:53:11;;;;;;;9.25;8.35;;;;;;;;;;4989141;28;20436;-80
2023/05/07 08:55:38;;;;;;;10.02;9.02;;;;;;;;;;4986155;28;20808;-79
2023/05/07 08:58:04;;;;;;;8.60;7.80;;;;;;;;;;4991894;28;20964;-79
2023/05/07 09:00:30;;;;;;;10.20;9.20;;;;;;;;;;4991534;28;20901;-81
2023/05/07 09:02:57;;;;;;;9.02;8.13;;;;;;;;;;4988970;28;20448;-79
2023/05/07 09:05:24;;;;;;;9.97;8.93;;;;;;;;;;4990531;28;20498;-81
2023/05/07 09:07:52;;;;;;;10.20;9.20;;;;;;;;;;4989377;28;20443;-81
2023/05/07 09:10:19;;;;;;;10.30;9.30;;;;;;;;;;4991697;28;20423;-79
2023/05/07 09:12:47;;;;;;;8.88;7.97;;;;;;;;;;4993497;28;20437;-79
2023/05/07 09:15:14;;;;;;;9.38;8.48;;;;;;;;;;4991223;28;20537;-79
2023/05/07 09:17:42;;;;;;;9.60;8.70;;;;;;;;;;4987736;28;20481;-80
2023/05/07 09:20:09;;;;;;;10.35;9.10;;;;;;;;;;4988324;28;20477;-80
2023/05/07 09:22:37;;;;;;;10.30;9.20;;;;;;;;;;4991242;28;20430;-81
2023/05/07 09:25:05;;;;;;;11.30;9.50;;;;;;;;;;4991721;28;20417;-79
2023/05/07 09:27:32;;;;;;;10.23;9.05;;;;;;;;;;4992040;28;20414;-79
2023/05/07 09:29:58;;;;;;;10.70;8.57;;;;;;;;;;4989806;28;20442;-79
2023/05/07 09:32:27;;;;;;;9.73;8.73;;;;;;;;;;4991957;28;20457;-79
2023/05/07 09:34:53;;;;;;;9.73;8.73;;;;;;;;;;4990663;28;20493;-79
2023/05/07 09:37:19;;;;;;;10.48;9.23;;;;;;;;;;4991309;28;20830;-78
2023/05/07 09:39:47;;;;;;;9.30;8.00;;;;;;;;;;4992373;28;20430;-81
2023/05/07 09:42:15;;;;;;;10.43;9.35;;;;;;;;;;4990079;28;20456;-80
2023/05/07 09:44:41;;;;;;;10.43;9.35;;;;;;;;;;4989724;28;20425;-80
2023/05/07 09:47:08;;;;;;;12.05;9.60;;;;;;;;;;4991735;28;20426;-81
2023/05/07 09:49:35;;;;;;;10.30;9.15;;;;;;;;;;4986406;28;20420;-80
2023/05/07 09:52:02;;;;;;;10.15;9.15;;;;;;;;;;4990805;28;20426;-80
2023/05/07 09:54:29;;;;;;;11.45;9.55;;;;;;;;;;4989196;28;20418;-79
2023/05/07 09:56:55;;;;;;;10.70;9.60;;;;;;;;;;4987493;28;20519;-80
2023/05/07 09:59:23;;;;;;;10.55;9.55;;;;;;;;;;4983956;28;20457;-80
2023/05/07 10:01:51;;;;;;;10.88;9.70;;;;;;;;;;4989941;28;20909;-81
2023/05/07 10:04:19;;;;;;;11.02;9.93;;;;;;;;;;4991657;28;20429;-81
2023/05/07 10:06:45;;;;;;;11.70;10.50;;;;;;;;;;4987520;28;20421;-79
2023/05/07 10:09:13;;;;;;;11.00;9.90;;;;;;;;;;4983058;28;20430;-80
2023/05/07 10:11:40;;;;;;;10.98;9.88;;;;;;;;;;4992003;28;20410;-80
2023/05/07 10:14:06;;;;;;;12.10;9.75;;;;;;;;;;4991856;28;20422;-80
2023/05/07 10:16:36;;;;;;;10.90;9.80;;;;;;;;;;4990796;28;20433;-80
2023/05/07 10:19:03;;;;;;;13.20;10.38;;;;;;;;;;4988933;28;21003;-80
2023/05/07 10:21:31;;;;;;;11.80;10.60;;;;;;;;;;4994284;28;20418;-80
2023/05/07 10:23:59;;;;;;;11.38;10.18;;;;;;;;;;4994414;28;20426;-80
2023/05/07 10:26:28;;;;;;;11.32;10.13;;;;;;;;;;4994736;28;20429;-81
2023/05/07 10:28:57;;;;;;;11.85;10.55;;;;;;;;;;4995094;28;20433;-81
2023/05/07 10:31:42;;;;;;;11.98;10.73;;;;;;;;;;4996151;28;20437;-81
2023/05/07 10:34:11;;;;;;;12.10;10.90;;;;;;;;;;4994286;28;20430;-80
2023/05/07 10:36:39;;;;;;;11.03;9.87;;;;;;;;;;4993338;28;20912;-78
2023/05/07 10:39:06;;;;;;;11.90;10.70;;;;;;;;;;4996478;28;20441;-80
2023/05/07 10:41:33;;;;;;;11.73;10.50;;;;;;;;;;4994238;28;20962;-79
2023/05/07 10:44:01;;;;;;;11.95;10.50;;;;;;;;;;4985483;28;20509;-79
2023/05/07 10:46:28;;;;;;;11.60;10.40;;;;;;;;;;4993753;28;20441;-80
2023/05/07 10:49:08;;;;;;;11.65;10.40;;;;;;;;;;4985774;28;20475;-79
2023/05/07 10:51:36;;;;;;;12.85;10.65;;;;;;;;;;4992803;28;20469;-81
2023/05/07 10:54:21;;;;;;;11.90;10.48;;;;;;;;;;4994867;28;20426;-81
2023/05/07 10:56:47;;;;;;;12.27;10.85;;;;;;;;;;4994211;28;20426;-81
2023/05/07 10:59:41;;;;;;;11.40;10.20;;;;;;;;;;4993697;28;20464;-81
2023/05/07 11:02:09;;;;;;;11.63;10.18;;;;;;;;;;4991346;28;20892;-78
2023/05/07 11:04:36;;;;;;;12.00;10.80;;;;;;;;;;4988925;28;20421;-78
2023/05/07 11:07:21;;;;;;;12.77;10.60;;;;;;;;;;5007988;28;20485;-80
2023/05/07 11:10:01;;;;;;;12.10;10.80;;;;;;;;;;4993885;28;20422;-79
2023/05/07 11:12:45;;;;;;;11.97;10.43;;;;;;;;;;4989145;28;20416;-79
2023/05/07 11:15:12;;;;;;;11.85;10.65;;;;;;;;;;4987272;28;20442;-80
2023/05/07 11:17:53;;;;;;;11.50;10.40;;;;;;;;;;4991136;28;20438;-80
2023/05/07 11:20:20;;;;;;;12.32;11.00;;;;;;;;;;4988462;28;20419;-79
2023/05/07 11:22:47;;;;;;;12.73;10.10;;;;;;;;;;4993173;28;20422;-79
2023/05/07 11:25:19;;;;;;;12.55;11.25;;;;;;;;;;4985437;28;20431;-79
2023/05/07 11:27:46;;;;;;;12.00;10.63;;;;;;;;;;4992450;28;20469;-79
2023/05/07 11:30:18;;;;;;;12.45;10.40;;;;;;;;;;4990357;28;20800;-79
2023/05/07 11:32:48;;;;;;;12.57;11.10;;;;;;;;;;4990214;28;21334;-79
2023/05/07 11:35:16;;;;;;;11.88;10.77;;;;;;;;;;4992437;28;20437;-79
2023/05/07 11:37:43;;;;;;;14.85;10.70;;;;;;;;;;5007661;28;20934;-79
2023/05/07 11:40:10;;;;;;;12.60;11.30;;;;;;;;;;4992796;28;20423;-78
2023/05/07 11:42:38;;;;;;;12.20;10.52;;;;;;;;;;4990377;28;20434;-78
2023/05/07 11:45:06;;;;;;;10.88;9.75;;;;;;;;;;4991909;28;20445;-78
2023/05/07 11:47:33;;;;;;;12.98;11.00;;;;;;;;;;4992258;28;20434;-79
2023/05/07 11:50:03;;;;;;;12.45;10.90;;;;;;;;;;4993654;28;20422;-78
2023/05/07 11:52:29;;;;;;;12.85;10.70;;;;;;;;;;4987139;28;20430;-79
2023/05/07 11:54:56;;;;;;;12.27;11.07;;;;;;;;;;4989337;28;20426;-79
2023/05/07 11:57:23;;;;;;;10.55;9.45;;;;;;;;;;4994640;28;20426;-79
2023/05/07 11:59:55;;;;;;;12.30;10.25;;;;;;;;;;5003686;28;20445;-79
2023/05/07 12:02:21;;;;;;;11.30;10.30;;;;;;;;;;4995532;28;20419;-79
2023/05/07 12:04:47;;;;;;;11.52;9.13;;;;;;;;;;4990478;28;20445;-77
2023/05/07 12:07:14;;;;;;;12.50;11.23;;;;;;;;;;4994040;28;20419;-79
2023/05/07 12:09:40;;;;;;;12.20;10.90;;;;;;;;;;5001844;28;20410;-78
2023/05/07 12:12:07;;;;;;;13.60;10.68;;;;;;;;;;4983858;28;20791;-79
2023/05/07 12:14:38;;;;;;;12.50;11.30;;;;;;;;;;4987417;28;20414;-78
2023/05/07 12:17:06;;;;;;;11.90;10.70;;;;;;;;;;4992597;28;20430;-81
2023/05/07 12:19:34;;;;;;;11.50;10.30;;;;;;;;;;4988084;28;20412;-79
2023/05/07 12:22:00;;;;;;;11.38;9.98;;;;;;;;;;4988973;28;20938;-80
2023/05/07 12:24:29;;;;;;;11.88;10.60;;;;;;;;;;4992454;28;21564;-79
2023/05/07 12:26:55;;;;;;;11.57;10.00;;;;;;;;;;4993218;28;20419;-81
2023/05/07 12:29:22;;;;;;;10.85;9.85;;;;;;;;;;4988183;28;20477;-78
2023/05/07 12:31:50;;;;;;;11.60;10.40;;;;;;;;;;4989085;28;20423;-79
2023/05/07 12:34:17;;;;;;;11.20;9.90;;;;;;;;;;5004258;28;20458;-79
2023/05/07 12:36:44;;;;;;;11.52;10.32;;;;;;;;;;4992216;28;20508;-79
2023/05/07 12:39:12;;;;;;;10.20;9.20;;;;;;;;;;4989307;28;20441;-79
2023/05/07 12:41:53;;;;;;;10.50;9.40;;;;;;;;;;4993667;28;20414;-79
2023/05/07 12:44:20;;;;;;;11.15;10.05;;;;;;;;;;4986214;28;20419;-79
2023/05/07 12:46:47;;;;;;;10.77;9.68;;;;;;;;;;4990716;28;20422;-79
2023/05/07 12:49:13;;;;;;;11.38;10.20;;;;;;;;;;4992127;28;20418;-80
2023/05/07 12:51:41;;;;;;;10.93;9.82;;;;;;;;;;4993258;28;20421;-79
2023/05/07 12:54:08;;;;;;;16.15;13.80;;;;;;;;;;4990418;28;20426;-79
2023/05/07 12:56:36;;;;;;;10.57;9.50;;;;;;;;;;4992358;28;20422;-79
2023/05/07 12:59:03;;;;;;;10.48;9.38;;;;;;;;;;4996530;28;20977;-79
2023/05/07 13:01:31;;;;;;;11.18;8.93;;;;;;;;;;4991617;28;20920;-78
2023/05/07 13:04:01;;;;;;;10.40;8.90;;;;;;;;;;4989327;28;20430;-79
2023/05/07 13:06:27;;;;;;;10.95;9.85;;;;;;;;;;4991387;28;20426;-80
2023/05/07 13:08:55;;;;;;;10.02;9.02;;;;;;;;;;4990905;28;20487;-79
2023/05/07 13:11:21;;;;;;;10.65;9.55;;;;;;;;;;4991861;28;20428;-79
2023/05/07 13:13:47;;;;;;;11.38;10.27;;;;;;;;;;4992179;28;20931;-79
2023/05/07 13:16:14;;;;;;;10.60;9.60;;;;;;;;;;4991635;28;20422;-79
2023/05/07 13:18:43;;;;;;;10.90;9.90;;;;;;;;;;4987201;28;20438;-79
2023/05/07 13:21:09;;;;;;;11.88;9.90;;;;;;;;;;4991741;28;20422;-79
2023/05/07 13:23:38;;;;;;;12.73;9.77;;;;;;;;;;4989808;28;20418;-78
2023/05/07 13:26:05;;;;;;;10.45;9.35;;;;;;;;;;4986378;28;20446;-79
2023/05/07 13:28:32;;;;;;;11.27;9.10;;;;;;;;;;4991947;28;20497;-80
2023/05/07 13:30:58;;;;;;;10.80;9.70;;;;;;;;;;4991488;28;20948;-78
2023/05/07 13:33:25;;;;;;;9.73;8.82;;;;;;;;;;4988652;28;20900;-81
2023/05/07 13:35:51;;;;;;;9.80;8.88;;;;;;;;;;4990824;28;20426;-79
2023/05/07 13:38:17;;;;;;;9.40;8.50;;;;;;;;;;4988543;28;20438;-79
2023/05/07 13:40:44;;;;;;;8.82;8.02;;;;;;;;;;4986277;28;20426;-78
2023/05/07 13:43:12;;;;;;;9.50;8.60;;;;;;;;;;4990724;28;20418;-79
2023/05/07 13:45:38;;;;;;;9.10;8.30;;;;;;;;;;4991246;28;20422;-79
2023/05/07 13:48:05;;;;;;;8.97;8.07;;;;;;;;;;4992624;28;20430;-79
2023/05/07 13:50:31;;;;;;;9.00;8.20;;;;;;;;;;4991359;28;20950;-79
2023/05/07 13:52:57;;;;;;;8.80;7.90;;;;;;;;;;4992758;28;20421;-78
2023/05/07 13:55:26;;;;;;;8.65;7.85;;;;;;;;;;4995037;28;20430;-78
2023/05/07 13:57:56;;;;;;;11.85;9.25;;;;;;;;;;4985088;28;20456;-78
2023/05/07 14:00:24;;;;;;;9.30;8.30;;;;;;;;;;4993992;28;20450;-79
2023/05/07 14:02:50;;;;;;;8.10;7.40;;;;;;;;;;4995325;28;20430;-79
2023/05/07 14:05:17;;;;;;;9.10;8.30;;;;;;;;;;4995236;28;20429;-80
2023/05/07 14:07:43;;;;;;;8.60;7.80;;;;;;;;;;4995738;28;20422;-80
2023/05/07 14:10:10;;;;;;;8.75;7.93;;;;;;;;;;4995041;28;20422;-81
2023/05/07 14:12:37;;;;;;;8.60;7.80;;;;;;;;;;4995541;28;20437;-80
2023/05/07 14:15:03;;;;;;;8.05;7.18;;;;;;;;;;4995276;28;20426;-79
2023/05/07 14:17:31;;;;;;;8.32;7.53;;;;;;;;;;4994185;28;20434;-81
2023/05/07 14:19:59;;;;;;;8.45;7.55;;;;;;;;;;4994713;28;20419;-78
2023/05/07 14:22:27;;;;;;;7.90;7.20;;;;;;;;;;4994683;28;20927;-80